createdAt,value
2022-11-03T00:01:09.111Z,101550.75
2022-11-03T00:06:06.693Z,101554.06
2022-11-03T00:11:05.391Z,101560.06
2022-11-03T00:16:04.452Z,101572.00
2022-11-03T00:21:05.404Z,101571.03
2022-11-03T00:26:10.051Z,101570.69
2022-11-03T00:31:11.271Z,101575.50
2022-11-03T00:36:11.294Z,101577.59
2022-11-03T00:41:10.936Z,101586.75
2022-11-03T00:46:08.734Z,101586.72
2022-11-03T00:51:08.642Z,101592.44
2022-11-03T00:56:06.516Z,101593.09
2022-11-03T01:01:07.181Z,101584.91
2022-11-03T01:06:26.991Z,101589.31
2022-11-03T01:11:43.788Z,101587.50
2022-11-03T01:16:41.410Z,101591.84
2022-11-03T01:21:40.625Z,101589.19
2022-11-03T01:26:37.872Z,101592.88
2022-11-03T01:31:35.413Z,101599.66
2022-11-03T01:36:35.885Z,101605.41
2022-11-03T01:41:36.891Z,101607.56
2022-11-03T01:46:39.947Z,101613.22
2022-11-03T01:51:40.043Z,101609.47
2022-11-03T01:56:38.308Z,101631.16
2022-11-03T02:01:35.681Z,101634.66
2022-11-03T02:06:33.466Z,101637.41
2022-11-03T02:11:50.290Z,101643.03
2022-11-03T02:16:49.980Z,101637.78
2022-11-03T02:21:56.900Z,101636.50
2022-11-03T02:26:56.183Z,101631.75
2022-11-03T02:32:10.634Z,101625.53
2022-11-03T02:37:11.786Z,101616.28
2022-11-03T02:42:12.226Z,101605.16
2022-11-03T02:47:11.281Z,101612.53
2022-11-03T02:52:29.360Z,101623.03
2022-11-03T02:57:34.283Z,101633.25
2022-11-03T03:02:36.260Z,101648.38
2022-11-03T03:07:37.254Z,101660.75
2022-11-03T03:12:34.879Z,101660.72
2022-11-03T03:17:51.272Z,101668.13
2022-11-03T03:22:57.021Z,101677.81
2022-11-03T03:27:55.734Z,101680.13
2022-11-03T03:32:53.245Z,101681.28
2022-11-03T03:37:53.919Z,101683.56
2022-11-03T03:42:54.520Z,101681.63
2022-11-03T03:48:05.686Z,101680.94
2022-11-03T03:53:04.406Z,101679.63
2022-11-03T03:58:01.986Z,101684.22
2022-11-03T04:03:03.109Z,101674.88
2022-11-03T04:08:03.431Z,101665.84
2022-11-03T04:13:19.715Z,101656.47
2022-11-03T04:18:39.067Z,101659.94
2022-11-03T04:23:36.566Z,101666.69
2022-11-03T04:28:34.258Z,101659.94
2022-11-03T04:33:31.758Z,101659.13
2022-11-03T04:38:32.345Z,101661.91
2022-11-03T04:43:33.611Z,101666.34
2022-11-03T04:48:32.703Z,101675.38
2022-11-03T04:53:31.932Z,101696.41
2022-11-03T04:58:32.231Z,101703.44
2022-11-03T05:03:30.557Z,101702.44
2022-11-03T05:08:31.389Z,101715.44
2022-11-03T05:13:28.784Z,101722.16
2022-11-03T05:18:29.847Z,101728.88
2022-11-03T05:23:27.536Z,101739.38
2022-11-03T05:28:33.820Z,101738.41
2022-11-03T05:33:35.353Z,101746.94
2022-11-03T05:38:33.307Z,101745.81
2022-11-03T05:43:35.165Z,101751.88
2022-11-03T05:48:35.909Z,101753.69
2022-11-03T05:53:38.624Z,101747.41
2022-11-03T05:58:38.003Z,101760.69
2022-11-03T06:03:35.699Z,101756.06
2022-11-03T06:08:34.742Z,101765.56
2022-11-03T06:13:36.601Z,101764.91
2022-11-03T06:18:35.464Z,101767.88
2022-11-03T06:23:33.479Z,101774.34
2022-11-03T06:28:35.142Z,101788.84
2022-11-03T06:33:36.416Z,101789.16
2022-11-03T06:38:34.952Z,101801.56
2022-11-03T06:43:34.862Z,101811.91
2022-11-03T06:48:33.702Z,101819.69
2022-11-03T06:53:33.936Z,101823.88
2022-11-03T06:58:33.355Z,101825.00
2022-11-03T07:03:35.396Z,101828.94
2022-11-03T07:08:36.548Z,101823.94
2022-11-03T07:13:33.980Z,101840.47
2022-11-03T07:18:39.679Z,101836.13
2022-11-03T07:23:44.650Z,101835.56
2022-11-03T07:28:46.039Z,101831.16
2022-11-03T07:33:46.149Z,101844.00
2022-11-03T07:38:43.702Z,101840.28
2022-11-03T07:43:43.347Z,101843.59
2022-11-03T07:48:44.797Z,101837.22
2022-11-03T07:53:42.809Z,101840.06
2022-11-03T07:58:42.674Z,101838.44
2022-11-03T08:03:45.266Z,101850.44
2022-11-03T08:08:44.391Z,101839.78
2022-11-03T08:13:44.415Z,101837.13
2022-11-03T08:18:46.572Z,101832.81
2022-11-03T08:23:47.852Z,101819.69
2022-11-03T08:28:47.966Z,101817.31
2022-11-03T08:33:45.271Z,101810.47
2022-11-03T08:38:42.843Z,101810.31
2022-11-03T08:43:42.891Z,101817.03
2022-11-03T08:48:42.936Z,101814.22
2022-11-03T08:53:42.781Z,101812.59
2022-11-03T08:58:40.224Z,101822.38
2022-11-03T09:03:38.048Z,101815.75
2022-11-03T09:13:57.843Z,101806.78
2022-11-03T09:18:55.755Z,101804.16
2022-11-03T09:23:53.513Z,101784.88
2022-11-03T09:28:52.080Z,101776.66
2022-11-03T09:33:51.882Z,101773.97
2022-11-03T09:38:49.313Z,101771.59
2022-11-03T09:43:47.200Z,101758.94
2022-11-03T09:48:44.529Z,101753.47
2022-11-03T09:53:46.142Z,101754.75
2022-11-03T09:58:43.682Z,101744.25
2022-11-03T10:03:42.100Z,101747.25
2022-11-03T10:08:42.544Z,101725.19
2022-11-03T10:13:43.513Z,101736.38
2022-11-03T10:18:44.775Z,101717.69
2022-11-03T10:23:42.804Z,101719.78
2022-11-03T10:28:42.486Z,101706.78
2022-11-03T10:33:40.886Z,101692.50
2022-11-03T10:38:38.103Z,101684.78
2022-11-03T10:43:36.196Z,101680.31
2022-11-03T10:48:33.978Z,101667.09
2022-11-03T10:53:31.732Z,101669.09
2022-11-03T10:58:33.052Z,101667.06
2022-11-03T11:03:34.217Z,101666.38
2022-11-03T11:08:34.674Z,101658.88
2022-11-03T11:13:35.457Z,101652.31
2022-11-03T11:18:37.514Z,101639.47
2022-11-03T11:23:39.707Z,101640.19
2022-11-03T11:28:41.963Z,101632.13
2022-11-03T11:33:43.668Z,101626.09
2022-11-03T11:38:46.272Z,101625.09
2022-11-03T11:43:47.731Z,101614.84
2022-11-03T11:48:47.758Z,101609.34
2022-11-03T11:54:16.243Z,101607.59
2022-11-03T11:59:24.213Z,101596.13
2022-11-03T12:04:33.531Z,101604.00
2022-11-03T12:09:34.980Z,101589.16
2022-11-03T12:14:44.830Z,101583.56
2022-11-03T12:19:45.097Z,101577.19
2022-11-03T12:25:01.820Z,101570.66
2022-11-03T12:30:26.758Z,101567.66
2022-11-03T12:35:24.436Z,101562.75
2022-11-03T12:40:29.255Z,101564.38
2022-11-03T12:45:46.646Z,101552.38
2022-11-03T12:50:45.028Z,101549.94
2022-11-03T12:55:44.920Z,101543.84
2022-11-03T13:00:52.058Z,101545.25
2022-11-03T13:06:13.091Z,101541.41
2022-11-03T13:11:55.060Z,101538.94
2022-11-03T13:17:05.971Z,101539.66
2022-11-03T13:22:11.152Z,101540.72
2022-11-03T13:27:10.140Z,101539.13
2022-11-03T13:32:11.794Z,101533.22
2022-11-03T13:37:14.370Z,101532.63
2022-11-03T13:42:15.361Z,101537.88
2022-11-03T13:48:15.560Z,101538.75
2022-11-03T14:09:19.475Z,101531.84
2022-11-03T14:14:25.854Z,101532.88
2022-11-03T14:19:36.793Z,101537.38
2022-11-03T14:24:42.679Z,101524.56
2022-11-03T14:29:44.668Z,101525.38
2022-11-03T14:34:45.614Z,101522.50
2022-11-03T14:40:05.036Z,101516.41
2022-11-03T14:45:20.359Z,101522.81
2022-11-03T14:50:24.406Z,101525.69
2022-11-03T14:55:27.688Z,101526.22
2022-11-03T15:00:31.680Z,101525.72
2022-11-03T15:05:58.347Z,101522.66
2022-11-03T15:11:02.540Z,101523.06
2022-11-03T15:16:07.611Z,101523.16
2022-11-03T15:21:07.127Z,101530.00
2022-11-03T15:26:13.463Z,101527.09
2022-11-03T15:31:19.596Z,101524.75
2022-11-03T15:36:21.363Z,101526.28
2022-11-03T15:41:50.444Z,101516.91
2022-11-03T15:46:53.381Z,101517.56
2022-11-03T15:52:06.439Z,101520.13
2022-11-03T15:57:09.618Z,101525.91
2022-11-03T16:02:35.729Z,101527.06
2022-11-03T16:07:44.454Z,101523.72
2022-11-03T16:13:00.170Z,101522.28
2022-11-03T16:18:10.835Z,101532.59
2022-11-03T16:23:15.167Z,101529.94
2022-11-03T16:28:20.673Z,101523.78
2022-11-03T16:33:33.619Z,101526.50
2022-11-03T16:38:54.995Z,101528.69
2022-11-03T16:44:13.348Z,101530.50
2022-11-03T16:49:27.346Z,101531.13
2022-11-03T16:54:26.829Z,101530.28
2022-11-03T16:59:27.821Z,101528.94
2022-11-03T17:04:27.806Z,101533.25
2022-11-03T17:09:27.528Z,101529.72
2022-11-03T17:14:27.561Z,101530.19
2022-11-03T17:19:27.582Z,101532.91
2022-11-03T17:24:26.989Z,101526.53
2022-11-03T17:29:48.645Z,101517.09
2022-11-03T17:40:22.963Z,101510.81
2022-11-03T17:45:32.183Z,101504.59
2022-11-03T17:50:33.408Z,101499.78
2022-11-03T17:55:37.594Z,101489.75
2022-11-03T18:00:41.264Z,101480.56
2022-11-03T18:05:40.060Z,101472.06
2022-11-03T18:10:41.601Z,101465.00
2022-11-03T18:15:43.148Z,101458.16
2022-11-03T18:20:43.535Z,101460.00
2022-11-03T18:25:46.711Z,101456.91
2022-11-03T18:30:45.808Z,101453.56
2022-11-03T18:35:45.436Z,101445.97
2022-11-03T18:40:48.511Z,101440.88
2022-11-03T18:45:48.384Z,101430.25
2022-11-03T18:50:50.515Z,101443.53
2022-11-03T18:55:52.984Z,101442.38
2022-11-03T19:00:55.263Z,101436.94
2022-11-03T19:05:54.779Z,101426.34
2022-11-03T19:11:01.321Z,101430.41
2022-11-03T19:16:03.496Z,101424.72
2022-11-03T19:21:28.891Z,101429.00
2022-11-03T19:26:36.741Z,101427.53
2022-11-03T19:31:40.940Z,101429.16
2022-11-03T19:36:40.411Z,101426.22
2022-11-03T19:42:04.276Z,101431.47
2022-11-03T19:47:18.100Z,101429.84
2022-11-03T19:52:19.620Z,101436.31
2022-11-03T19:57:22.718Z,101437.84
2022-11-03T20:02:31.970Z,101433.63
2022-11-03T20:07:31.749Z,101431.94
2022-11-03T20:12:34.587Z,101430.94
2022-11-03T20:17:35.601Z,101437.56
2022-11-03T20:22:34.778Z,101432.13
2022-11-03T20:27:33.902Z,101429.84
2022-11-03T20:32:33.275Z,101418.97
2022-11-03T20:37:34.385Z,101425.34
2022-11-03T20:42:39.874Z,101425.56
2022-11-03T20:47:39.053Z,101422.41
2022-11-03T20:52:47.167Z,101416.69
2022-11-03T20:57:46.958Z,101421.91
2022-11-03T21:02:48.454Z,101413.03
2022-11-03T21:07:49.197Z,101407.69
2022-11-03T21:12:52.547Z,101396.63
2022-11-03T21:18:17.215Z,101397.97
2022-11-03T21:23:23.719Z,101405.78
2022-11-03T21:28:23.939Z,101395.97
2022-11-03T21:33:25.964Z,101400.50
2022-11-03T21:38:30.996Z,101396.41
2022-11-03T21:43:51.905Z,101399.88
2022-11-03T21:49:14.621Z,101396.44
2022-11-03T21:54:15.830Z,101398.06
2022-11-03T21:59:17.530Z,101389.41
2022-11-03T22:04:20.029Z,101378.72
2022-11-03T22:09:20.265Z,101390.69
2022-11-03T22:14:24.827Z,101387.72
2022-11-03T22:19:47.359Z,101374.63
2022-11-03T22:25:10.130Z,101380.13
2022-11-03T22:30:29.746Z,101368.44
2022-11-03T22:35:48.154Z,101359.25
2022-11-03T22:41:07.591Z,101351.25
2022-11-03T22:46:11.617Z,101336.16
2022-11-03T22:51:14.409Z,101326.03
2022-11-03T22:56:16.277Z,101324.63
2022-11-03T23:01:21.323Z,101330.59
2022-11-03T23:06:26.930Z,101325.31
2022-11-03T23:11:32.795Z,101329.69
2022-11-03T23:16:36.252Z,101327.53
2022-11-03T23:21:34.722Z,101328.75
2022-11-03T23:26:33.485Z,101326.41
2022-11-03T23:31:33.163Z,101320.63
2022-11-03T23:36:31.949Z,101310.63
2022-11-03T23:41:32.718Z,101306.75
2022-11-03T23:46:55.776Z,101315.97
2022-11-03T23:51:55.622Z,101306.91
2022-11-03T23:57:15.371Z,101295.66
